sensor_id;sensor_type;location;lat;lon;timestamp;P1;durP1;ratioP1;P2;durP2;ratioP2
77222;SDS011;66218;48.928;9.140;2023-03-17T00:01:38;2.37;;;0.77;;
77222;SDS011;66218;48.928;9.140;2023-03-17T00:04:03;3.17;;;1.87;;
77222;SDS011;66218;48.928;9.140;2023-03-17T00:06:29;2.90;;;1.48;;
77222;SDS011;66218;48.928;9.140;2023-03-17T00:08:55;2.70;;;1.00;;
77222;SDS011;66218;48.928;9.140;2023-03-17T00:11:21;3.60;;;1.42;;
77222;SDS011;66218;48.928;9.140;2023-03-17T00:13:46;2.78;;;1.45;;
77222;SDS011;66218;48.928;9.140;2023-03-17T00:16:16;2.85;;;0.93;;
77222;SDS011;66218;48.928;9.140;2023-03-17T00:18:43;2.35;;;1.33;;
77222;SDS011;66218;48.928;9.140;2023-03-17T00:21:15;5.13;;;1.55;;
77222;SDS011;66218;48.928;9.140;2023-03-17T00:23:42;3.13;;;1.27;;
77222;SDS011;66218;48.928;9.140;2023-03-17T00:26:09;5.00;;;1.90;;
77222;SDS011;66218;48.928;9.140;2023-03-17T00:28:35;2.45;;;1.17;;
77222;SDS011;66218;48.928;9.140;2023-03-17T00:31:01;3.33;;;1.55;;
77222;SDS011;66218;48.928;9.140;2023-03-17T00:33:30;4.60;;;1.80;;
77222;SDS011;66218;48.928;9.140;2023-03-17T00:35:58;5.28;;;2.17;;
77222;SDS011;66218;48.928;9.140;2023-03-17T00:38:24;6.05;;;1.20;;
77222;SDS011;66218;48.928;9.140;2023-03-17T00:40:49;2.67;;;0.80;;
77222;SDS011;66218;48.928;9.140;2023-03-17T00:43:15;2.88;;;1.40;;
77222;SDS011;66218;48.928;9.140;2023-03-17T00:45:40;1.70;;;1.03;;
77222;SDS011;66218;48.928;9.140;2023-03-17T00:48:12;2.53;;;1.23;;
77222;SDS011;66218;48.928;9.140;2023-03-17T00:53:05;2.63;;;1.13;;
77222;SDS011;66218;48.928;9.140;2023-03-17T00:55:30;1.58;;;0.77;;
77222;SDS011;66218;48.928;9.140;2023-03-17T00:57:55;2.97;;;1.47;;
77222;SDS011;66218;48.928;9.140;2023-03-17T01:00:22;3.23;;;1.60;;
77222;SDS011;66218;48.928;9.140;2023-03-17T01:02:48;3.72;;;1.90;;
77222;SDS011;66218;48.928;9.140;2023-03-17T01:05:14;4.90;;;2.05;;
77222;SDS011;66218;48.928;9.140;2023-03-17T01:07:40;4.22;;;1.23;;
77222;SDS011;66218;48.928;9.140;2023-03-17T01:10:10;3.80;;;1.55;;
77222;SDS011;66218;48.928;9.140;2023-03-17T01:12:36;3.15;;;1.80;;
77222;SDS011;66218;48.928;9.140;2023-03-17T01:15:02;3.38;;;1.42;;
77222;SDS011;66218;48.928;9.140;2023-03-17T01:17:27;3.88;;;2.00;;
77222;SDS011;66218;48.928;9.140;2023-03-17T01:19:53;3.22;;;1.33;;
77222;SDS011;66218;48.928;9.140;2023-03-17T01:22:18;2.27;;;1.37;;
77222;SDS011;66218;48.928;9.140;2023-03-17T01:24:43;3.97;;;1.87;;
77222;SDS011;66218;48.928;9.140;2023-03-17T01:27:08;2.73;;;1.13;;
77222;SDS011;66218;48.928;9.140;2023-03-17T01:29:34;3.60;;;1.58;;
77222;SDS011;66218;48.928;9.140;2023-03-17T01:31:59;1.93;;;1.00;;
77222;SDS011;66218;48.928;9.140;2023-03-17T01:34:24;3.07;;;1.47;;
77222;SDS011;66218;48.928;9.140;2023-03-17T01:36:49;6.38;;;1.08;;
77222;SDS011;66218;48.928;9.140;2023-03-17T01:39:15;3.20;;;1.53;;
77222;SDS011;66218;48.928;9.140;2023-03-17T01:41:40;2.58;;;1.67;;
77222;SDS011;66218;48.928;9.140;2023-03-17T01:44:08;4.78;;;1.90;;
77222;SDS011;66218;48.928;9.140;2023-03-17T01:46:36;3.05;;;0.88;;
77222;SDS011;66218;48.928;9.140;2023-03-17T01:49:06;4.27;;;1.30;;
77222;SDS011;66218;48.928;9.140;2023-03-17T01:51:48;1.95;;;1.25;;
77222;SDS011;66218;48.928;9.140;2023-03-17T01:54:17;2.20;;;1.23;;
77222;SDS011;66218;48.928;9.140;2023-03-17T01:56:44;2.85;;;1.08;;
77222;SDS011;66218;48.928;9.140;2023-03-17T01:59:12;2.75;;;1.20;;
77222;SDS011;66218;48.928;9.140;2023-03-17T02:01:41;3.35;;;1.33;;
77222;SDS011;66218;48.928;9.140;2023-03-17T02:04:07;3.60;;;1.30;;
77222;SDS011;66218;48.928;9.140;2023-03-17T02:11:25;1.60;;;0.63;;
77222;SDS011;66218;48.928;9.140;2023-03-17T02:13:50;2.10;;;1.05;;
77222;SDS011;66218;48.928;9.140;2023-03-17T02:16:17;4.68;;;1.30;;
77222;SDS011;66218;48.928;9.140;2023-03-17T02:18:42;3.57;;;1.50;;
77222;SDS011;66218;48.928;9.140;2023-03-17T02:23:51;3.15;;;1.23;;
77222;SDS011;66218;48.928;9.140;2023-03-17T02:26:16;2.77;;;1.87;;
77222;SDS011;66218;48.928;9.140;2023-03-17T02:28:42;2.83;;;1.40;;
77222;SDS011;66218;48.928;9.140;2023-03-17T02:31:10;1.40;;;0.95;;
77222;SDS011;66218;48.928;9.140;2023-03-17T02:33:36;1.88;;;1.05;;
77222;SDS011;66218;48.928;9.140;2023-03-17T02:36:01;3.73;;;1.17;;
77222;SDS011;66218;48.928;9.140;2023-03-17T02:38:27;3.13;;;1.40;;
77222;SDS011;66218;48.928;9.140;2023-03-17T02:40:52;6.73;;;1.57;;
77222;SDS011;66218;48.928;9.140;2023-03-17T02:43:17;5.33;;;1.80;;
77222;SDS011;66218;48.928;9.140;2023-03-17T02:45:42;1.97;;;1.13;;
77222;SDS011;66218;48.928;9.140;2023-03-17T02:48:07;6.07;;;1.47;;
77222;SDS011;66218;48.928;9.140;2023-03-17T02:50:33;2.00;;;1.00;;
77222;SDS011;66218;48.928;9.140;2023-03-17T02:52:58;3.30;;;1.87;;
77222;SDS011;66218;48.928;9.140;2023-03-17T02:55:23;4.60;;;1.83;;
77222;SDS011;66218;48.928;9.140;2023-03-17T02:57:48;2.80;;;1.10;;
77222;SDS011;66218;48.928;9.140;2023-03-17T03:00:14;1.93;;;1.13;;
77222;SDS011;66218;48.928;9.140;2023-03-17T03:02:39;2.25;;;1.42;;
77222;SDS011;66218;48.928;9.140;2023-03-17T03:05:04;3.93;;;1.40;;
77222;SDS011;66218;48.928;9.140;2023-03-17T03:07:30;2.45;;;1.23;;
77222;SDS011;66218;48.928;9.140;2023-03-17T03:09:56;3.17;;;1.98;;
77222;SDS011;66218;48.928;9.140;2023-03-17T03:12:21;2.67;;;1.38;;
77222;SDS011;66218;48.928;9.140;2023-03-17T03:14:47;1.47;;;1.03;;
77222;SDS011;66218;48.928;9.140;2023-03-17T03:17:12;4.15;;;1.98;;
77222;SDS011;66218;48.928;9.140;2023-03-17T03:19:38;4.87;;;2.47;;
77222;SDS011;66218;48.928;9.140;2023-03-17T03:22:03;4.60;;;2.08;;
77222;SDS011;66218;48.928;9.140;2023-03-17T03:24:29;1.70;;;1.05;;
77222;SDS011;66218;48.928;9.140;2023-03-17T03:26:54;3.43;;;1.23;;
77222;SDS011;66218;48.928;9.140;2023-03-17T03:29:19;3.47;;;1.58;;
77222;SDS011;66218;48.928;9.140;2023-03-17T03:31:45;1.95;;;1.00;;
77222;SDS011;66218;48.928;9.140;2023-03-17T03:34:12;4.47;;;1.95;;
77222;SDS011;66218;48.928;9.140;2023-03-17T03:36:37;3.37;;;1.80;;
77222;SDS011;66218;48.928;9.140;2023-03-17T03:39:02;1.37;;;1.07;;
77222;SDS011;66218;48.928;9.140;2023-03-17T03:41:28;5.03;;;2.33;;
77222;SDS011;66218;48.928;9.140;2023-03-17T03:43:53;5.27;;;1.93;;
77222;SDS011;66218;48.928;9.140;2023-03-17T03:46:18;3.35;;;1.75;;
77222;SDS011;66218;48.928;9.140;2023-03-17T03:48:43;4.55;;;2.00;;
77222;SDS011;66218;48.928;9.140;2023-03-17T03:51:09;4.35;;;1.63;;
77222;SDS011;66218;48.928;9.140;2023-03-17T03:53:34;6.03;;;1.70;;
77222;SDS011;66218;48.928;9.140;2023-03-17T03:56:00;5.75;;;1.65;;
77222;SDS011;66218;48.928;9.140;2023-03-17T03:58:25;3.65;;;2.28;;
77222;SDS011;66218;48.928;9.140;2023-03-17T04:00:51;4.50;;;1.93;;
77222;SDS011;66218;48.928;9.140;2023-03-17T04:03:16;4.43;;;1.75;;
77222;SDS011;66218;48.928;9.140;2023-03-17T04:05:41;2.87;;;1.87;;
77222;SDS011;66218;48.928;9.140;2023-03-17T04:08:06;6.20;;;2.55;;
77222;SDS011;66218;48.928;9.140;2023-03-17T04:10:32;5.97;;;2.23;;
77222;SDS011;66218;48.928;9.140;2023-03-17T04:12:57;1.90;;;1.40;;
77222;SDS011;66218;48.928;9.140;2023-03-17T04:15:23;3.60;;;2.05;;
77222;SDS011;66218;48.928;9.140;2023-03-17T04:17:48;5.38;;;2.08;;
77222;SDS011;66218;48.928;9.140;2023-03-17T04:20:14;4.23;;;1.90;;
77222;SDS011;66218;48.928;9.140;2023-03-17T04:22:40;3.78;;;1.98;;
77222;SDS011;66218;48.928;9.140;2023-03-17T04:25:09;4.72;;;2.05;;
77222;SDS011;66218;48.928;9.140;2023-03-17T04:27:34;5.20;;;1.85;;
77222;SDS011;66218;48.928;9.140;2023-03-17T04:30:00;4.15;;;1.63;;
77222;SDS011;66218;48.928;9.140;2023-03-17T04:32:25;2.15;;;1.17;;
77222;SDS011;66218;48.928;9.140;2023-03-17T04:34:51;2.53;;;1.73;;
77222;SDS011;66218;48.928;9.140;2023-03-17T04:37:16;1.97;;;1.70;;
77222;SDS011;66218;48.928;9.140;2023-03-17T04:39:41;3.92;;;2.58;;
77222;SDS011;66218;48.928;9.140;2023-03-17T04:42:07;3.13;;;2.40;;
77222;SDS011;66218;48.928;9.140;2023-03-17T04:44:32;4.30;;;1.13;;
77222;SDS011;66218;48.928;9.140;2023-03-17T04:46:57;4.13;;;2.13;;
77222;SDS011;66218;48.928;9.140;2023-03-17T04:49:23;2.20;;;1.33;;
77222;SDS011;66218;48.928;9.140;2023-03-17T04:51:48;3.27;;;1.90;;
77222;SDS011;66218;48.928;9.140;2023-03-17T04:54:13;4.82;;;1.70;;
77222;SDS011;66218;48.928;9.140;2023-03-17T04:56:38;2.93;;;1.47;;
77222;SDS011;66218;48.928;9.140;2023-03-17T04:59:04;5.57;;;2.03;;
77222;SDS011;66218;48.928;9.140;2023-03-17T05:01:29;2.22;;;1.13;;
77222;SDS011;66218;48.928;9.140;2023-03-17T05:03:55;4.57;;;2.33;;
77222;SDS011;66218;48.928;9.140;2023-03-17T05:06:20;4.30;;;1.33;;
77222;SDS011;66218;48.928;9.140;2023-03-17T05:08:45;2.25;;;1.30;;
77222;SDS011;66218;48.928;9.140;2023-03-17T05:11:11;2.55;;;1.27;;
77222;SDS011;66218;48.928;9.140;2023-03-17T05:13:36;4.28;;;1.42;;
77222;SDS011;66218;48.928;9.140;2023-03-17T05:16:01;1.60;;;1.30;;
77222;SDS011;66218;48.928;9.140;2023-03-17T05:18:27;4.45;;;2.53;;
77222;SDS011;66218;48.928;9.140;2023-03-17T05:20:52;5.82;;;2.58;;
77222;SDS011;66218;48.928;9.140;2023-03-17T05:23:18;2.58;;;1.15;;
77222;SDS011;66218;48.928;9.140;2023-03-17T05:25:43;6.88;;;2.30;;
77222;SDS011;66218;48.928;9.140;2023-03-17T05:28:08;7.10;;;2.33;;
77222;SDS011;66218;48.928;9.140;2023-03-17T05:30:34;4.10;;;2.40;;
77222;SDS011;66218;48.928;9.140;2023-03-17T05:33:02;2.35;;;1.45;;
77222;SDS011;66218;48.928;9.140;2023-03-17T05:35:27;5.95;;;2.42;;
77222;SDS011;66218;48.928;9.140;2023-03-17T05:37:53;1.63;;;1.17;;
77222;SDS011;66218;48.928;9.140;2023-03-17T05:40:18;3.70;;;1.33;;
77222;SDS011;66218;48.928;9.140;2023-03-17T05:42:43;3.47;;;1.63;;
77222;SDS011;66218;48.928;9.140;2023-03-17T05:45:09;2.55;;;1.63;;
77222;SDS011;66218;48.928;9.140;2023-03-17T05:47:34;2.42;;;1.30;;
77222;SDS011;66218;48.928;9.140;2023-03-17T05:50:00;3.78;;;1.52;;
77222;SDS011;66218;48.928;9.140;2023-03-17T05:52:25;1.80;;;1.20;;
77222;SDS011;66218;48.928;9.140;2023-03-17T05:54:51;5.40;;;2.25;;
77222;SDS011;66218;48.928;9.140;2023-03-17T05:57:17;3.50;;;2.17;;
77222;SDS011;66218;48.928;9.140;2023-03-17T05:59:43;6.82;;;1.25;;
77222;SDS011;66218;48.928;9.140;2023-03-17T06:02:08;2.30;;;1.43;;
77222;SDS011;66218;48.928;9.140;2023-03-17T06:07:00;2.53;;;1.48;;
77222;SDS011;66218;48.928;9.140;2023-03-17T06:09:25;3.90;;;1.60;;
77222;SDS011;66218;48.928;9.140;2023-03-17T06:11:51;2.95;;;1.27;;
77222;SDS011;66218;48.928;9.140;2023-03-17T06:14:16;3.53;;;1.43;;
77222;SDS011;66218;48.928;9.140;2023-03-17T06:16:42;2.03;;;1.25;;
77222;SDS011;66218;48.928;9.140;2023-03-17T06:19:07;2.10;;;1.90;;
77222;SDS011;66218;48.928;9.140;2023-03-17T06:21:32;3.73;;;1.37;;
77222;SDS011;66218;48.928;9.140;2023-03-17T06:23:57;3.20;;;2.17;;
77222;SDS011;66218;48.928;9.140;2023-03-17T06:26:22;3.67;;;1.80;;
77222;SDS011;66218;48.928;9.140;2023-03-17T06:28:48;3.00;;;1.70;;
77222;SDS011;66218;48.928;9.140;2023-03-17T06:31:13;3.07;;;1.57;;
77222;SDS011;66218;48.928;9.140;2023-03-17T06:33:38;4.17;;;1.50;;
77222;SDS011;66218;48.928;9.140;2023-03-17T06:36:03;2.27;;;1.30;;
77222;SDS011;66218;48.928;9.140;2023-03-17T06:38:29;2.92;;;1.83;;
77222;SDS011;66218;48.928;9.140;2023-03-17T06:40:54;6.40;;;1.98;;
77222;SDS011;66218;48.928;9.140;2023-03-17T06:43:19;2.65;;;1.15;;
77222;SDS011;66218;48.928;9.140;2023-03-17T06:45:46;7.95;;;2.10;;
77222;SDS011;66218;48.928;9.140;2023-03-17T06:48:11;2.78;;;1.52;;
77222;SDS011;66218;48.928;9.140;2023-03-17T06:50:37;3.67;;;1.70;;
77222;SDS011;66218;48.928;9.140;2023-03-17T06:53:02;2.90;;;1.93;;
77222;SDS011;66218;48.928;9.140;2023-03-17T06:55:27;3.78;;;1.60;;
77222;SDS011;66218;48.928;9.140;2023-03-17T06:57:52;6.60;;;2.03;;
77222;SDS011;66218;48.928;9.140;2023-03-17T07:00:18;9.40;;;1.85;;
77222;SDS011;66218;48.928;9.140;2023-03-17T07:02:43;4.60;;;2.22;;
77222;SDS011;66218;48.928;9.140;2023-03-17T07:05:09;4.17;;;1.60;;
77222;SDS011;66218;48.928;9.140;2023-03-17T07:07:34;2.40;;;1.20;;
77222;SDS011;66218;48.928;9.140;2023-03-17T07:09:59;3.70;;;1.87;;
77222;SDS011;66218;48.928;9.140;2023-03-17T07:12:25;4.05;;;1.50;;
77222;SDS011;66218;48.928;9.140;2023-03-17T07:14:51;2.78;;;1.17;;
77222;SDS011;66218;48.928;9.140;2023-03-17T07:17:16;4.07;;;2.07;;
77222;SDS011;66218;48.928;9.140;2023-03-17T07:19:42;3.67;;;2.25;;
77222;SDS011;66218;48.928;9.140;2023-03-17T07:22:08;5.65;;;2.20;;
77222;SDS011;66218;48.928;9.140;2023-03-17T07:24:35;6.70;;;2.75;;
77222;SDS011;66218;48.928;9.140;2023-03-17T07:27:00;6.87;;;2.30;;
77222;SDS011;66218;48.928;9.140;2023-03-17T07:29:25;3.40;;;2.13;;
77222;SDS011;66218;48.928;9.140;2023-03-17T07:31:51;5.65;;;2.22;;
77222;SDS011;66218;48.928;9.140;2023-03-17T07:34:17;1.83;;;1.23;;
77222;SDS011;66218;48.928;9.140;2023-03-17T07:36:42;4.77;;;2.20;;
77222;SDS011;66218;48.928;9.140;2023-03-17T07:39:07;4.00;;;2.20;;
77222;SDS011;66218;48.928;9.140;2023-03-17T07:41:33;4.87;;;1.93;;
77222;SDS011;66218;48.928;9.140;2023-03-17T07:43:58;6.15;;;2.67;;
77222;SDS011;66218;48.928;9.140;2023-03-17T07:46:24;4.38;;;1.92;;
77222;SDS011;66218;48.928;9.140;2023-03-17T07:48:49;3.35;;;2.03;;
77222;SDS011;66218;48.928;9.140;2023-03-17T07:51:16;8.15;;;2.60;;
77222;SDS011;66218;48.928;9.140;2023-03-17T07:53:42;5.22;;;1.85;;
77222;SDS011;66218;48.928;9.140;2023-03-17T07:56:07;5.65;;;2.35;;
77222;SDS011;66218;48.928;9.140;2023-03-17T07:58:33;3.45;;;1.67;;
77222;SDS011;66218;48.928;9.140;2023-03-17T08:00:58;3.40;;;2.03;;
77222;SDS011;66218;48.928;9.140;2023-03-17T08:03:24;5.68;;;2.03;;
77222;SDS011;66218;48.928;9.140;2023-03-17T08:05:50;2.83;;;1.40;;
77222;SDS011;66218;48.928;9.140;2023-03-17T08:08:15;3.85;;;1.95;;
77222;SDS011;66218;48.928;9.140;2023-03-17T08:10:41;3.07;;;1.83;;
77222;SDS011;66218;48.928;9.140;2023-03-17T08:13:06;8.10;;;1.97;;
77222;SDS011;66218;48.928;9.140;2023-03-17T08:15:31;3.92;;;2.20;;
77222;SDS011;66218;48.928;9.140;2023-03-17T08:17:57;2.97;;;1.85;;
77222;SDS011;66218;48.928;9.140;2023-03-17T08:20:22;9.03;;;2.07;;
77222;SDS011;66218;48.928;9.140;2023-03-17T08:22:47;5.80;;;2.67;;
77222;SDS011;66218;48.928;9.140;2023-03-17T08:25:12;6.00;;;2.10;;
77222;SDS011;66218;48.928;9.140;2023-03-17T08:27:38;4.45;;;1.50;;
77222;SDS011;66218;48.928;9.140;2023-03-17T08:30:03;8.45;;;2.05;;
77222;SDS011;66218;48.928;9.140;2023-03-17T08:32:29;4.00;;;2.10;;
77222;SDS011;66218;48.928;9.140;2023-03-17T08:34:54;6.37;;;2.63;;
77222;SDS011;66218;48.928;9.140;2023-03-17T08:37:20;4.28;;;2.20;;
77222;SDS011;66218;48.928;9.140;2023-03-17T08:39:46;3.97;;;1.67;;
77222;SDS011;66218;48.928;9.140;2023-03-17T08:42:11;3.93;;;2.13;;
77222;SDS011;66218;48.928;9.140;2023-03-17T08:44:36;5.47;;;2.27;;
77222;SDS011;66218;48.928;9.140;2023-03-17T08:47:02;2.87;;;1.37;;
77222;SDS011;66218;48.928;9.140;2023-03-17T08:49:27;5.22;;;2.00;;
77222;SDS011;66218;48.928;9.140;2023-03-17T08:51:52;2.90;;;1.90;;
77222;SDS011;66218;48.928;9.140;2023-03-17T08:54:18;5.70;;;2.10;;
77222;SDS011;66218;48.928;9.140;2023-03-17T08:56:43;5.43;;;2.10;;
77222;SDS011;66218;48.928;9.140;2023-03-17T08:59:08;4.83;;;2.40;;
77222;SDS011;66218;48.928;9.140;2023-03-17T09:01:34;4.30;;;1.70;;
77222;SDS011;66218;48.928;9.140;2023-03-17T09:03:59;3.50;;;1.83;;
77222;SDS011;66218;48.928;9.140;2023-03-17T09:06:25;5.20;;;2.13;;
77222;SDS011;66218;48.928;9.140;2023-03-17T09:08:50;3.95;;;1.90;;
77222;SDS011;66218;48.928;9.140;2023-03-17T09:11:19;3.78;;;1.70;;
77222;SDS011;66218;48.928;9.140;2023-03-17T09:16:11;3.95;;;1.52;;
77222;SDS011;66218;48.928;9.140;2023-03-17T09:18:37;4.07;;;1.98;;
77222;SDS011;66218;48.928;9.140;2023-03-17T09:21:02;3.13;;;1.92;;
77222;SDS011;66218;48.928;9.140;2023-03-17T09:23:29;3.70;;;2.45;;
77222;SDS011;66218;48.928;9.140;2023-03-17T09:25:54;5.05;;;1.98;;
77222;SDS011;66218;48.928;9.140;2023-03-17T09:28:20;4.38;;;2.50;;
77222;SDS011;66218;48.928;9.140;2023-03-17T09:30:45;3.53;;;1.73;;
77222;SDS011;66218;48.928;9.140;2023-03-17T09:33:11;7.03;;;2.40;;
77222;SDS011;66218;48.928;9.140;2023-03-17T09:35:37;5.32;;;1.98;;
77222;SDS011;66218;48.928;9.140;2023-03-17T09:38:02;6.10;;;1.85;;
77222;SDS011;66218;48.928;9.140;2023-03-17T09:40:46;3.42;;;1.95;;
77222;SDS011;66218;48.928;9.140;2023-03-17T09:45:38;3.77;;;1.97;;
77222;SDS011;66218;48.928;9.140;2023-03-17T09:50:53;8.43;;;2.33;;
77222;SDS011;66218;48.928;9.140;2023-03-17T09:53:20;4.05;;;1.77;;
77222;SDS011;66218;48.928;9.140;2023-03-17T09:55:47;6.70;;;1.75;;
77222;SDS011;66218;48.928;9.140;2023-03-17T09:58:15;3.22;;;1.92;;
77222;SDS011;66218;48.928;9.140;2023-03-17T10:00:43;5.00;;;2.40;;
77222;SDS011;66218;48.928;9.140;2023-03-17T10:03:10;4.85;;;2.03;;
77222;SDS011;66218;48.928;9.140;2023-03-17T10:05:36;3.45;;;1.60;;
77222;SDS011;66218;48.928;9.140;2023-03-17T10:13:08;5.15;;;1.98;;
77222;SDS011;66218;48.928;9.140;2023-03-17T10:15:36;5.18;;;1.83;;
77222;SDS011;66218;48.928;9.140;2023-03-17T10:18:09;3.35;;;1.65;;
77222;SDS011;66218;48.928;9.140;2023-03-17T10:20:35;8.63;;;1.98;;
77222;SDS011;66218;48.928;9.140;2023-03-17T10:23:06;3.33;;;1.38;;
77222;SDS011;66218;48.928;9.140;2023-03-17T10:25:34;5.47;;;2.75;;
77222;SDS011;66218;48.928;9.140;2023-03-17T10:28:01;5.18;;;1.70;;
77222;SDS011;66218;48.928;9.140;2023-03-17T10:30:28;2.33;;;1.60;;
77222;SDS011;66218;48.928;9.140;2023-03-17T10:32:54;3.85;;;1.95;;
77222;SDS011;66218;48.928;9.140;2023-03-17T10:35:21;5.68;;;2.15;;
77222;SDS011;66218;48.928;9.140;2023-03-17T10:37:47;3.88;;;1.88;;
77222;SDS011;66218;48.928;9.140;2023-03-17T10:40:20;4.53;;;2.20;;
77222;SDS011;66218;48.928;9.140;2023-03-17T10:42:52;4.10;;;1.80;;
77222;SDS011;66218;48.928;9.140;2023-03-17T10:47:46;6.10;;;1.70;;
77222;SDS011;66218;48.928;9.140;2023-03-17T10:52:40;5.25;;;1.52;;
77222;SDS011;66218;48.928;9.140;2023-03-17T10:55:06;2.03;;;1.23;;
77222;SDS011;66218;48.928;9.140;2023-03-17T10:57:34;4.38;;;1.90;;
77222;SDS011;66218;48.928;9.140;2023-03-17T11:00:02;3.08;;;1.42;;
77222;SDS011;66218;48.928;9.140;2023-03-17T11:02:35;4.18;;;1.55;;
77222;SDS011;66218;48.928;9.140;2023-03-17T11:05:13;3.47;;;1.40;;
77222;SDS011;66218;48.928;9.140;2023-03-17T11:07:41;2.50;;;1.48;;
77222;SDS011;66218;48.928;9.140;2023-03-17T11:10:20;6.68;;;1.83;;
77222;SDS011;66218;48.928;9.140;2023-03-17T11:12:46;2.10;;;1.63;;
77222;SDS011;66218;48.928;9.140;2023-03-17T11:15:14;2.38;;;0.90;;
77222;SDS011;66218;48.928;9.140;2023-03-17T11:17:53;2.85;;;1.42;;
77222;SDS011;66218;48.928;9.140;2023-03-17T11:25:31;2.58;;;1.20;;
77222;SDS011;66218;48.928;9.140;2023-03-17T11:28:09;4.28;;;1.33;;
77222;SDS011;66218;48.928;9.140;2023-03-17T11:35:52;2.30;;;1.00;;
77222;SDS011;66218;48.928;9.140;2023-03-17T11:38:23;2.53;;;1.40;;
77222;SDS011;66218;48.928;9.140;2023-03-17T11:55:44;1.57;;;0.83;;
77222;SDS011;66218;48.928;9.140;2023-03-17T12:00:55;2.67;;;1.52;;
77222;SDS011;66218;48.928;9.140;2023-03-17T12:03:38;4.53;;;1.30;;
77222;SDS011;66218;48.928;9.140;2023-03-17T12:06:09;1.42;;;0.90;;
77222;SDS011;66218;48.928;9.140;2023-03-17T12:11:11;2.65;;;1.55;;
77222;SDS011;66218;48.928;9.140;2023-03-17T12:13:40;5.00;;;1.10;;
77222;SDS011;66218;48.928;9.140;2023-03-17T12:23:52;2.55;;;1.40;;
77222;SDS011;66218;48.928;9.140;2023-03-17T12:28:57;1.70;;;1.08;;
77222;SDS011;66218;48.928;9.140;2023-03-17T12:31:24;2.88;;;1.13;;
77222;SDS011;66218;48.928;9.140;2023-03-17T12:36:30;3.63;;;1.30;;
77222;SDS011;66218;48.928;9.140;2023-03-17T12:38:59;2.45;;;1.40;;
77222;SDS011;66218;48.928;9.140;2023-03-17T12:41:41;3.22;;;1.08;;
77222;SDS011;66218;48.928;9.140;2023-03-17T12:54:31;3.50;;;0.90;;
77222;SDS011;66218;48.928;9.140;2023-03-17T12:57:12;2.38;;;0.98;;
77222;SDS011;66218;48.928;9.140;2023-03-17T12:59:40;1.45;;;0.85;;
77222;SDS011;66218;48.928;9.140;2023-03-17T13:07:13;2.10;;;0.82;;
77222;SDS011;66218;48.928;9.140;2023-03-17T13:12:53;7.03;;;1.00;;
77222;SDS011;66218;48.928;9.140;2023-03-17T13:15:20;1.88;;;0.98;;
77222;SDS011;66218;48.928;9.140;2023-03-17T13:17:46;2.35;;;0.70;;
77222;SDS011;66218;48.928;9.140;2023-03-17T13:22:38;1.90;;;0.80;;
77222;SDS011;66218;48.928;9.140;2023-03-17T13:25:11;0.95;;;0.70;;
77222;SDS011;66218;48.928;9.140;2023-03-17T13:35:24;2.47;;;0.82;;
77222;SDS011;66218;48.928;9.140;2023-03-17T13:38:02;1.67;;;0.80;;
77222;SDS011;66218;48.928;9.140;2023-03-17T13:45:41;5.00;;;0.68;;
77222;SDS011;66218;48.928;9.140;2023-03-17T13:53:27;1.38;;;0.75;;
77222;SDS011;66218;48.928;9.140;2023-03-17T13:56:16;1.08;;;0.60;;
77222;SDS011;66218;48.928;9.140;2023-03-17T14:01:14;0.80;;;0.38;;
77222;SDS011;66218;48.928;9.140;2023-03-17T14:06:06;2.50;;;0.67;;
77222;SDS011;66218;48.928;9.140;2023-03-17T14:08:36;3.13;;;0.90;;
77222;SDS011;66218;48.928;9.140;2023-03-17T14:11:26;1.80;;;0.88;;
77222;SDS011;66218;48.928;9.140;2023-03-17T14:16:14;3.57;;;0.60;;
77222;SDS011;66218;48.928;9.140;2023-03-17T14:18:41;1.35;;;0.68;;
77222;SDS011;66218;48.928;9.140;2023-03-17T14:21:18;3.58;;;0.90;;
77222;SDS011;66218;48.928;9.140;2023-03-17T14:24:13;1.90;;;0.55;;
77222;SDS011;66218;48.928;9.140;2023-03-17T14:26:30;0.65;;;0.38;;
77222;SDS011;66218;48.928;9.140;2023-03-17T14:28:59;1.88;;;0.90;;
77222;SDS011;66218;48.928;9.140;2023-03-17T14:31:25;0.40;;;0.40;;
77222;SDS011;66218;48.928;9.140;2023-03-17T14:33:53;0.60;;;0.43;;
77222;SDS011;66218;48.928;9.140;2023-03-17T14:36:19;1.10;;;0.40;;
77222;SDS011;66218;48.928;9.140;2023-03-17T14:38:46;0.85;;;0.47;;
77222;SDS011;66218;48.928;9.140;2023-03-17T14:41:16;2.88;;;0.73;;
77222;SDS011;66218;48.928;9.140;2023-03-17T14:43:42;2.97;;;0.85;;
77222;SDS011;66218;48.928;9.140;2023-03-17T14:48:59;2.05;;;0.63;;
77222;SDS011;66218;48.928;9.140;2023-03-17T14:51:27;2.20;;;0.80;;
77222;SDS011;66218;48.928;9.140;2023-03-17T14:53:53;4.50;;;0.60;;
77222;SDS011;66218;48.928;9.140;2023-03-17T14:56:25;2.38;;;0.57;;
77222;SDS011;66218;48.928;9.140;2023-03-17T15:06:30;2.28;;;0.50;;
77222;SDS011;66218;48.928;9.140;2023-03-17T15:08:57;1.77;;;0.47;;
77222;SDS011;66218;48.928;9.140;2023-03-17T15:11:35;3.55;;;1.17;;
77222;SDS011;66218;48.928;9.140;2023-03-17T15:14:10;1.33;;;0.60;;
77222;SDS011;66218;48.928;9.140;2023-03-17T15:16:38;3.08;;;0.82;;
77222;SDS011;66218;48.928;9.140;2023-03-17T15:19:14;4.85;;;0.80;;
77222;SDS011;66218;48.928;9.140;2023-03-17T15:21:42;7.35;;;0.82;;
77222;SDS011;66218;48.928;9.140;2023-03-17T15:26:47;2.70;;;0.77;;
77222;SDS011;66218;48.928;9.140;2023-03-17T15:29:13;1.67;;;0.77;;
77222;SDS011;66218;48.928;9.140;2023-03-17T15:31:38;1.13;;;0.50;;
77222;SDS011;66218;48.928;9.140;2023-03-17T15:34:03;2.30;;;0.50;;
77222;SDS011;66218;48.928;9.140;2023-03-17T15:36:28;2.67;;;0.90;;
77222;SDS011;66218;48.928;9.140;2023-03-17T15:38:53;1.77;;;0.70;;
77222;SDS011;66218;48.928;9.140;2023-03-17T15:41:19;2.83;;;1.10;;
77222;SDS011;66218;48.928;9.140;2023-03-17T15:43:45;2.65;;;0.80;;
77222;SDS011;66218;48.928;9.140;2023-03-17T15:46:19;6.03;;;1.43;;
77222;SDS011;66218;48.928;9.140;2023-03-17T15:48:45;2.45;;;0.85;;
77222;SDS011;66218;48.928;9.140;2023-03-17T15:51:10;2.43;;;0.80;;
77222;SDS011;66218;48.928;9.140;2023-03-17T15:53:36;3.15;;;1.10;;
77222;SDS011;66218;48.928;9.140;2023-03-17T15:56:01;3.80;;;1.30;;
77222;SDS011;66218;48.928;9.140;2023-03-17T15:58:26;2.90;;;1.15;;
77222;SDS011;66218;48.928;9.140;2023-03-17T16:00:53;2.28;;;1.10;;
77222;SDS011;66218;48.928;9.140;2023-03-17T16:03:23;3.65;;;0.80;;
77222;SDS011;66218;48.928;9.140;2023-03-17T16:05:51;2.28;;;1.05;;
77222;SDS011;66218;48.928;9.140;2023-03-17T16:08:16;2.67;;;0.77;;
77222;SDS011;66218;48.928;9.140;2023-03-17T16:10:42;3.10;;;1.10;;
77222;SDS011;66218;48.928;9.140;2023-03-17T16:13:07;3.30;;;1.02;;
77222;SDS011;66218;48.928;9.140;2023-03-17T16:15:35;3.60;;;1.17;;
77222;SDS011;66218;48.928;9.140;2023-03-17T16:18:01;2.38;;;1.00;;
77222;SDS011;66218;48.928;9.140;2023-03-17T16:22:54;2.47;;;1.30;;
77222;SDS011;66218;48.928;9.140;2023-03-17T16:27:45;2.47;;;1.02;;
77222;SDS011;66218;48.928;9.140;2023-03-17T16:30:18;2.03;;;1.00;;
77222;SDS011;66218;48.928;9.140;2023-03-17T16:32:43;2.63;;;1.23;;
77222;SDS011;66218;48.928;9.140;2023-03-17T16:35:12;3.38;;;1.40;;
77222;SDS011;66218;48.928;9.140;2023-03-17T16:37:38;4.93;;;1.63;;
77222;SDS011;66218;48.928;9.140;2023-03-17T16:40:03;3.67;;;1.37;;
77222;SDS011;66218;48.928;9.140;2023-03-17T16:42:29;4.28;;;1.60;;
77222;SDS011;66218;48.928;9.140;2023-03-17T16:44:56;5.45;;;1.45;;
77222;SDS011;66218;48.928;9.140;2023-03-17T16:47:21;2.77;;;1.20;;
77222;SDS011;66218;48.928;9.140;2023-03-17T16:49:46;4.93;;;1.77;;
77222;SDS011;66218;48.928;9.140;2023-03-17T16:52:11;3.60;;;1.43;;
77222;SDS011;66218;48.928;9.140;2023-03-17T16:54:36;5.00;;;1.53;;
77222;SDS011;66218;48.928;9.140;2023-03-17T16:57:02;2.87;;;1.20;;
77222;SDS011;66218;48.928;9.140;2023-03-17T16:59:27;1.65;;;1.17;;
77222;SDS011;66218;48.928;9.140;2023-03-17T17:01:55;3.88;;;1.20;;
77222;SDS011;66218;48.928;9.140;2023-03-17T17:04:21;2.70;;;1.13;;